VNKT/KTM METAR and TAF weather

Enter ICAO airport designator
Station Type Date Time Source
VNKT METAR 2022/01/19 20:50 UTC NOAA

VNKT 192050Z 06003KT 7000 FEW015 SCT030 BKN100 09/07 Q1015 NOSIG


Station Type Date Time Source
VNKT Decoded METAR 2022/01/19 20:50 UTC NOAA

Kathmandu Airport, Nepal (VNKT) 27-42N 085-22E 1337M
Jan 19, 2022 - 03:50 PM EST / 2022.01.19 2050 UTC
Wind: from the ENE (060 degrees) at 3 MPH (3 KT):0
Visibility: 4 mile(s):0
Sky conditions: mostly cloudy
Temperature: 48 F (9 C)
Dew Point: 44 F (7 C)
Relative Humidity: 87%
Pressure (altimeter): 29.97 in. Hg (1015 hPa)
ob: VNKT 192050Z 06003KT 7000 FEW015 SCT030 BKN100 09/07 Q1015 NOSIG
cycle: 21

Station Type Date Time Source
VNKT TAF 2022/01/19 18:39 UTC NOAA

TAF VNKT 191700Z 1918/2018 VRB02KT 7000 FEW015 SCT100
BECMG 2000/2002 VRB02KT 3000 BR FEW010 BKN100 PROB40 2001/2003 1500 BR
BECMG 2004/2005 15003KT 4000 HZ FEW010 BKN100
BECMG 2008/2009 21007KT 7000 FEW015 BKN100
BECMG 2014/2015 12003KT 7000 FEW015 SCT100

Example: see airport list